PWSweather.com
Personal Weather Stations
Station Observations
KNCCHINA3
Red Tractor Trail, China Grove, NC 28023

Red Tractor TrailChina Grove, NC 28023

Lat: 35.59751, Lon: -80.60201

Elevation: 800

Station Type: Oregon Scientific WMR 968

http://www.joesweathergarage.com

High Low Average
Temperature 86.9°F30.5°C 69.4°F20.8°C 77.3°F25.2°C
Dew Point 77.7°F25.4°C 68.7°F20.4°C 73.3°F22.9°C
Winds 5.2 mph 8.4 kmh Calm Calm 2.0 mph S3.2 kmh S
Wind Gusts 9.0 mph14.5 kmh -- 5.0 mph8.0 kmh
Humidity 98% 67% 88%
Pressure 30.00 in1015.9 mb 29.88 in1011.9 mb -
Precipitation 0.13 in3.3 mm - -
Hour Temp Dew Point Humidity Winds Wind Gusts Pressure Precip Precip Rate Daily Precip Total
12:03 AM 72.5°F22.5°C 71.5°F21.9°C 97% 4.4 mph S7.1 kmh S 8.6 mph13.8 kmh 29.97 in1014.9 mb 0.00 in0.0 mm 0.00 in0.0 mm 0.00 in0.0 mm
12:08 AM 72.1°F22.3°C 71.1°F21.7°C 97% 1.9 mph SSW3.1 kmh SSW 8.6 mph13.8 kmh 29.97 in1014.9 mb 0.00 in0.0 mm 0.00 in0.0 mm 0.00 in0.0 mm
12:13 AM 72.1°F22.3°C 71.1°F21.7°C 97% 2.6 mph ESE4.2 kmh ESE 6.2 mph10.0 kmh 29.97 in1014.9 mb 0.00 in0.0 mm 0.00 in0.0 mm 0.00 in0.0 mm
12:18 AM 72.1°F22.3°C 71.1°F21.7°C 97% 2.6 mph S4.2 kmh S 6.2 mph10.0 kmh 29.97 in1014.9 mb 0.00 in0.0 mm 0.00 in0.0 mm 0.00 in0.0 mm
12:24 AM 71.9°F22.2°C 70.9°F21.6°C 97% Calm Calm 5.0 mph8.0 kmh 29.97 in1014.9 mb 0.00 in0.0 mm 0.00 in0.0 mm 0.00 in0.0 mm
12:29 AM 71.8°F22.1°C 70.8°F21.6°C 97% 3.7 mph SW6.0 kmh SW 5.4 mph8.7 kmh 29.97 in1014.9 mb 0.00 in0.0 mm 0.00 in0.0 mm 0.00 in0.0 mm
12:34 AM 71.8°F22.1°C 71.1°F21.7°C 98% 3.4 mph ESE5.5 kmh ESE 6.2 mph10.0 kmh 29.94 in1013.9 mb 0.00 in0.0 mm 0.00 in0.0 mm 0.00 in0.0 mm
12:39 AM 71.8°F22.1°C 71.1°F21.7°C 98% 2.5 mph S4.0 kmh S 6.2 mph10.0 kmh 29.94 in1013.9 mb 0.00 in0.0 mm 0.00 in0.0 mm 0.00 in0.0 mm
12:45 AM 71.6°F22.0°C 70.9°F21.6°C 98% 2.6 mph S4.2 kmh S 5.0 mph8.0 kmh 29.94 in1013.9 mb 0.00 in0.0 mm 0.00 in0.0 mm 0.00 in0.0 mm
12:50 AM 71.6°F22.0°C 70.9°F21.6°C 98% 3.0 mph SSW4.8 kmh SSW 5.0 mph8.0 kmh 29.97 in1014.9 mb 0.00 in0.0 mm 0.00 in0.0 mm 0.00 in0.0 mm
12:55 AM 71.6°F22.0°C 70.9°F21.6°C 98% 2.9 mph S4.7 kmh S 7.2 mph11.6 kmh 29.97 in1014.9 mb 0.00 in0.0 mm 0.00 in0.0 mm 0.00 in0.0 mm
01:00 AM 71.6°F22.0°C 70.9°F21.6°C 98% 3.1 mph S5.0 kmh S 7.2 mph11.6 kmh 29.97 in1014.9 mb 0.00 in0.0 mm 0.00 in0.0 mm 0.00 in0.0 mm
01:05 AM 71.6°F22.0°C 70.9°F21.6°C 98% 4.0 mph S6.4 kmh S 5.0 mph8.0 kmh 29.97 in1014.9 mb 0.00 in0.0 mm 0.00 in0.0 mm 0.00 in0.0 mm
01:10 AM 71.8°F22.1°C 71.1°F21.7°C 98% Calm Calm 4.4 mph7.1 kmh 29.97 in1014.9 mb 0.00 in0.0 mm 0.00 in0.0 mm 0.00 in0.0 mm
01:15 AM 71.8°F22.1°C 71.1°F21.7°C 98% 3.4 mph WSW5.5 kmh WSW 5.4 mph8.7 kmh 29.97 in1014.9 mb 0.00 in0.0 mm 0.00 in0.0 mm 0.00 in0.0 mm
01:20 AM 71.9°F22.2°C 71.2°F21.8°C 98% 3.3 mph S5.3 kmh S 5.4 mph8.7 kmh 29.97 in1014.9 mb 0.00 in0.0 mm 0.00 in0.0 mm 0.00 in0.0 mm
01:25 AM 72.1°F22.3°C 71.4°F21.9°C 98% 3.5 mph SSE5.6 kmh SSE 5.4 mph8.7 kmh 29.97 in1014.9 mb 0.00 in0.0 mm 0.00 in0.0 mm 0.00 in0.0 mm
01:30 AM 72.1°F22.3°C 71.4°F21.9°C 98% 5.0 mph W8.0 kmh W 6.2 mph10.0 kmh 29.97 in1014.9 mb 0.00 in0.0 mm 0.00 in0.0 mm 0.00 in0.0 mm
01:36 AM 72.3°F22.4°C 71.6°F22.0°C 98% 4.3 mph ENE6.9 kmh ENE 6.2 mph10.0 kmh 29.97 in1014.9 mb 0.00 in0.0 mm 0.00 in0.0 mm 0.00 in0.0 mm
01:42 AM 72.3°F22.4°C 71.6°F22.0°C 98% 4.2 mph S6.8 kmh S 8.0 mph12.9 kmh 29.97 in1014.9 mb 0.00 in0.0 mm 0.00 in0.0 mm 0.00 in0.0 mm
01:46 AM 72.3°F22.4°C 71.6°F22.0°C 98% Calm Calm 8.0 mph12.9 kmh 30.00 in1015.9 mb 0.00 in0.0 mm 0.00 in0.0 mm 0.00 in0.0 mm
01:52 AM 72.3°F22.4°C 71.6°F22.0°C 98% 3.2 mph S5.1 kmh S 5.0 mph8.0 kmh 30.00 in1015.9 mb 0.00 in0.0 mm 0.00 in0.0 mm 0.00 in0.0 mm
01:57 AM 72.3°F22.4°C 71.6°F22.0°C 98% 3.2 mph S5.1 kmh S 4.0 mph6.4 kmh 30.00 in1015.9 mb 0.00 in0.0 mm 0.00 in0.0 mm 0.00 in0.0 mm
02:02 AM 72.5°F22.5°C 71.8°F22.1°C 98% 2.2 mph SSE3.5 kmh SSE 4.4 mph7.1 kmh 29.97 in1014.9 mb 0.00 in0.0 mm 0.00 in0.0 mm 0.00 in0.0 mm
02:07 AM 72.3°F22.4°C 71.6°F22.0°C 98% Calm Calm 4.4 mph7.1 kmh 29.97 in1014.9 mb 0.00 in0.0 mm 0.00 in0.0 mm 0.00 in0.0 mm
02:12 AM 72.3°F22.4°C 71.6°F22.0°C 98% 1.8 mph SSW2.9 kmh SSW 2.6 mph4.2 kmh 29.97 in1014.9 mb 0.00 in0.0 mm 0.00 in0.0 mm 0.00 in0.0 mm
02:18 AM 72.3°F22.4°C 71.6°F22.0°C 98% Calm Calm 3.2 mph5.1 kmh 29.97 in1014.9 mb 0.00 in0.0 mm 0.00 in0.0 mm 0.00 in0.0 mm
02:23 AM 72.3°F22.4°C 71.6°F22.0°C 98% Calm Calm 3.2 mph5.1 kmh 29.97 in1014.9 mb 0.00 in0.0 mm 0.00 in0.0 mm 0.00 in0.0 mm
02:28 AM 72.3°F22.4°C 71.6°F22.0°C 98% 2.7 mph S4.3 kmh S 3.2 mph5.1 kmh 29.97 in1014.9 mb 0.00 in0.0 mm 0.00 in0.0 mm 0.00 in0.0 mm
02:33 AM 72.3°F22.4°C 71.6°F22.0°C 98% 3.2 mph SE5.1 kmh SE 5.0 mph8.0 kmh 29.97 in1014.9 mb 0.00 in0.0 mm 0.00 in0.0 mm 0.00 in0.0 mm
02:38 AM 72.3°F22.4°C 71.6°F22.0°C 98% 4.4 mph SSE7.1 kmh SSE 5.0 mph8.0 kmh 29.97 in1014.9 mb 0.00 in0.0 mm 0.00 in0.0 mm 0.00 in0.0 mm
02:43 AM 72.3°F22.4°C 71.6°F22.0°C 98% Calm Calm 4.4 mph7.1 kmh 29.97 in1014.9 mb 0.00 in0.0 mm 0.00 in0.0 mm 0.00 in0.0 mm
02:50 AM 72.3°F22.4°C 71.6°F22.0°C 98% 1.8 mph SSE2.9 kmh SSE 4.4 mph7.1 kmh 29.97 in1014.9 mb 0.00 in0.0 mm 0.00 in0.0 mm 0.00 in0.0 mm
02:55 AM 72.3°F22.4°C 71.6°F22.0°C 98% 3.4 mph SSE5.5 kmh SSE 4.4 mph7.1 kmh 29.97 in1014.9 mb 0.00 in0.0 mm 0.00 in0.0 mm 0.00 in0.0 mm
03:00 AM 72.3°F22.4°C 71.6°F22.0°C 98% Calm Calm 4.0 mph6.4 kmh 29.97 in1014.9 mb 0.00 in0.0 mm 0.00 in0.0 mm 0.00 in0.0 mm
03:05 AM 72.1°F22.3°C 71.4°F21.9°C 98% 2.2 mph ESE3.5 kmh ESE 2.2 mph3.5 kmh 29.97 in1014.9 mb 0.00 in0.0 mm 0.00 in0.0 mm 0.00 in0.0 mm
03:10 AM 72.1°F22.3°C 71.4°F21.9°C 98% 2.5 mph SW4.0 kmh SW 5.0 mph8.0 kmh 29.97 in1014.9 mb 0.00 in0.0 mm 0.00 in0.0 mm 0.00 in0.0 mm
03:15 AM 72.3°F22.4°C 71.6°F22.0°C 98% 3.2 mph SSW5.1 kmh SSW 5.0 mph8.0 kmh 29.97 in1014.9 mb 0.00 in0.0 mm 0.00 in0.0 mm 0.00 in0.0 mm
03:20 AM 72.1°F22.3°C 71.4°F21.9°C 98% 2.5 mph SW4.0 kmh SW 5.0 mph8.0 kmh 29.97 in1014.9 mb 0.00 in0.0 mm 0.00 in0.0 mm 0.00 in0.0 mm
03:25 AM 72.1°F22.3°C 71.4°F21.9°C 98% 1.8 mph SSE2.9 kmh SSE 5.0 mph8.0 kmh 29.97 in1014.9 mb 0.00 in0.0 mm 0.00 in0.0 mm 0.00 in0.0 mm
03:30 AM 72.1°F22.3°C 71.4°F21.9°C 98% 2.3 mph SSE3.7 kmh SSE 3.2 mph5.1 kmh 29.97 in1014.9 mb 0.00 in0.0 mm 0.00 in0.0 mm 0.00 in0.0 mm
03:35 AM 72.1°F22.3°C 71.4°F21.9°C 98% Calm Calm 3.2 mph5.1 kmh 29.97 in1014.9 mb 0.00 in0.0 mm 0.00 in0.0 mm 0.00 in0.0 mm
03:40 AM 72.1°F22.3°C 71.4°F21.9°C 98% 2.9 mph SSE4.7 kmh SSE 4.0 mph6.4 kmh 29.97 in1014.9 mb 0.00 in0.0 mm 0.00 in0.0 mm 0.00 in0.0 mm
03:45 AM 72.1°F22.3°C 71.4°F21.9°C 98% 2.8 mph SW4.5 kmh SW 4.0 mph6.4 kmh 29.97 in1014.9 mb 0.00 in0.0 mm 0.00 in0.0 mm 0.00 in0.0 mm
03:51 AM 71.9°F22.2°C 71.2°F21.8°C 98% 2.6 mph S4.2 kmh S 4.0 mph6.4 kmh 29.97 in1014.9 mb 0.00 in0.0 mm 0.00 in0.0 mm 0.00 in0.0 mm
03:56 AM 71.9°F22.2°C 71.2°F21.8°C 98% 2.5 mph S4.0 kmh S 4.0 mph6.4 kmh 29.97 in1014.9 mb 0.00 in0.0 mm 0.00 in0.0 mm 0.00 in0.0 mm
04:02 AM 71.9°F22.2°C 71.2°F21.8°C 98% Calm Calm 4.4 mph7.1 kmh 29.97 in1014.9 mb 0.00 in0.0 mm 0.00 in0.0 mm 0.00 in0.0 mm
04:07 AM 71.8°F22.1°C 71.1°F21.7°C 98% Calm Calm -- 29.97 in1014.9 mb 0.00 in0.0 mm 0.00 in0.0 mm 0.00 in0.0 mm
04:13 AM 71.8°F22.1°C 71.1°F21.7°C 98% Calm Calm -- 29.97 in1014.9 mb 0.00 in0.0 mm 0.00 in0.0 mm 0.00 in0.0 mm
04:18 AM 71.8°F22.1°C 71.1°F21.7°C 98% Calm Calm 1.8 mph2.9 kmh 29.97 in1014.9 mb 0.00 in0.0 mm 0.00 in0.0 mm 0.00 in0.0 mm
04:23 AM 71.8°F22.1°C 71.1°F21.7°C 98% 2.6 mph W4.2 kmh W 2.6 mph4.2 kmh 29.97 in1014.9 mb 0.00 in0.0 mm 0.00 in0.0 mm 0.00 in0.0 mm
04:28 AM 71.8°F22.1°C 71.1°F21.7°C 98% Calm Calm 2.6 mph4.2 kmh 29.97 in1014.9 mb 0.00 in0.0 mm 0.00 in0.0 mm 0.00 in0.0 mm
04:33 AM 71.8°F22.1°C 71.1°F21.7°C 98% 1.8 mph SSE2.9 kmh SSE 3.2 mph5.1 kmh 29.97 in1014.9 mb 0.00 in0.0 mm 0.00 in0.0 mm 0.00 in0.0 mm
04:38 AM 71.8°F22.1°C 71.1°F21.7°C 98% 2.9 mph SSW4.7 kmh SSW 3.2 mph5.1 kmh 29.97 in1014.9 mb 0.00 in0.0 mm 0.00 in0.0 mm 0.00 in0.0 mm
04:43 AM 71.8°F22.1°C 71.1°F21.7°C 98% 2.2 mph SSW3.5 kmh SSW 3.2 mph5.1 kmh 29.97 in1014.9 mb 0.00 in0.0 mm 0.00 in0.0 mm 0.00 in0.0 mm
04:48 AM 71.8°F22.1°C 71.1°F21.7°C 98% Calm Calm 2.6 mph4.2 kmh 29.97 in1014.9 mb 0.00 in0.0 mm 0.00 in0.0 mm 0.00 in0.0 mm
04:54 AM 71.8°F22.1°C 71.1°F21.7°C 98% 3.7 mph SSW6.0 kmh SSW 4.4 mph7.1 kmh 29.97 in1014.9 mb 0.00 in0.0 mm 0.00 in0.0 mm 0.00 in0.0 mm
04:59 AM 71.6°F22.0°C 70.9°F21.6°C 98% 2.0 mph S3.2 kmh S 4.4 mph7.1 kmh 29.97 in1014.9 mb 0.00 in0.0 mm 0.00 in0.0 mm 0.00 in0.0 mm
05:04 AM 71.6°F22.0°C 70.9°F21.6°C 98% 2.0 mph SSW3.2 kmh SSW 4.4 mph7.1 kmh 30.00 in1015.9 mb 0.00 in0.0 mm 0.00 in0.0 mm 0.00 in0.0 mm
05:09 AM 71.6°F22.0°C 70.9°F21.6°C 98% Calm Calm 2.6 mph4.2 kmh 30.00 in1015.9 mb 0.00 in0.0 mm 0.00 in0.0 mm 0.00 in0.0 mm
05:14 AM 71.6°F22.0°C 70.9°F21.6°C 98% Calm Calm -- 30.00 in1015.9 mb 0.00 in0.0 mm 0.00 in0.0 mm 0.00 in0.0 mm
05:19 AM 71.6°F22.0°C 70.9°F21.6°C 98% 2.0 mph S3.2 kmh S 2.2 mph3.5 kmh 29.97 in1014.9 mb 0.00 in0.0 mm 0.00 in0.0 mm 0.00 in0.0 mm
05:24 AM 71.6°F22.0°C 70.9°F21.6°C 98% 2.0 mph S3.2 kmh S 5.8 mph9.3 kmh 29.97 in1014.9 mb 0.00 in0.0 mm 0.00 in0.0 mm 0.00 in0.0 mm
05:29 AM 71.6°F22.0°C 70.9°F21.6°C 98% 2.2 mph S3.5 kmh S 5.8 mph9.3 kmh 29.97 in1014.9 mb 0.00 in0.0 mm 0.00 in0.0 mm 0.00 in0.0 mm
05:34 AM 71.6°F22.0°C 70.9°F21.6°C 98% Calm Calm 4.4 mph7.1 kmh 29.97 in1014.9 mb 0.00 in0.0 mm 0.00 in0.0 mm 0.00 in0.0 mm
05:39 AM 71.8°F22.1°C 71.1°F21.7°C 98% 2.6 mph S4.2 kmh S 4.4 mph7.1 kmh 29.97 in1014.9 mb 0.00 in0.0 mm 0.00 in0.0 mm 0.00 in0.0 mm
05:44 AM 71.8°F22.1°C 71.1°F21.7°C 98% 1.8 mph S2.9 kmh S 4.0 mph6.4 kmh 29.97 in1014.9 mb 0.00 in0.0 mm 0.00 in0.0 mm 0.00 in0.0 mm
05:49 AM 71.8°F22.1°C 71.1°F21.7°C 98% 2.6 mph SE4.2 kmh SE 5.0 mph8.0 kmh 29.94 in1013.9 mb 0.00 in0.0 mm 0.00 in0.0 mm 0.00 in0.0 mm
05:55 AM 71.9°F22.2°C 71.2°F21.8°C 98% 2.6 mph S4.2 kmh S 5.0 mph8.0 kmh 29.94 in1013.9 mb 0.00 in0.0 mm 0.00 in0.0 mm 0.00 in0.0 mm
06:00 AM 71.9°F22.2°C 71.2°F21.8°C 98% Calm Calm 5.0 mph8.0 kmh 29.94 in1013.9 mb 0.00 in0.0 mm 0.00 in0.0 mm 0.00 in0.0 mm
06:05 AM 72.1°F22.3°C 71.4°F21.9°C 98% 2.2 mph S3.5 kmh S 5.0 mph8.0 kmh 29.94 in1013.9 mb 0.00 in0.0 mm 0.00 in0.0 mm 0.00 in0.0 mm
06:10 AM 72.1°F22.3°C 71.4°F21.9°C 98% Calm Calm 5.0 mph8.0 kmh 29.94 in1013.9 mb 0.00 in0.0 mm 0.00 in0.0 mm 0.00 in0.0 mm
06:15 AM 72.1°F22.3°C 71.4°F21.9°C 98% 4.0 mph SW6.4 kmh SW 4.0 mph6.4 kmh 29.94 in1013.9 mb 0.00 in0.0 mm 0.00 in0.0 mm 0.00 in0.0 mm
06:20 AM 72.1°F22.3°C 71.4°F21.9°C 98% Calm Calm 4.0 mph6.4 kmh 29.97 in1014.9 mb 0.00 in0.0 mm 0.00 in0.0 mm 0.00 in0.0 mm
06:26 AM 72.3°F22.4°C 71.6°F22.0°C 98% 4.0 mph ESE6.4 kmh ESE 4.0 mph6.4 kmh 29.97 in1014.9 mb 0.00 in0.0 mm 0.00 in0.0 mm 0.00 in0.0 mm
06:31 AM 72.5°F22.5°C 71.5°F21.9°C 97% 2.9 mph SSW4.7 kmh SSW 5.0 mph8.0 kmh 29.97 in1014.9 mb 0.00 in0.0 mm 0.00 in0.0 mm 0.00 in0.0 mm
06:36 AM 72.8°F22.7°C 71.8°F22.1°C 97% 2.5 mph SSE4.0 kmh SSE 5.0 mph8.0 kmh 29.97 in1014.9 mb 0.00 in0.0 mm 0.00 in0.0 mm 0.00 in0.0 mm
06:41 AM 72.8°F22.7°C 71.8°F22.1°C 97% Calm Calm 4.4 mph7.1 kmh 29.97 in1014.9 mb 0.00 in0.0 mm 0.00 in0.0 mm 0.00 in0.0 mm
06:46 AM 72.8°F22.7°C 71.8°F22.1°C 97% 3.4 mph S5.5 kmh S 5.4 mph8.7 kmh 29.97 in1014.9 mb 0.00 in0.0 mm 0.00 in0.0 mm 0.00 in0.0 mm
06:51 AM 72.8°F22.7°C 71.8°F22.1°C 97% 2.6 mph SW4.2 kmh SW 5.4 mph8.7 kmh 29.97 in1014.9 mb 0.00 in0.0 mm 0.00 in0.0 mm 0.00 in0.0 mm
06:57 AM 73.0°F22.8°C 72.0°F22.2°C 97% 4.0 mph SSW6.4 kmh SSW 4.0 mph6.4 kmh 29.97 in1014.9 mb 0.00 in0.0 mm 0.00 in0.0 mm 0.00 in0.0 mm
07:02 AM 73.2°F22.9°C 72.2°F22.3°C 97% Calm Calm 4.0 mph6.4 kmh 30.00 in1015.9 mb 0.00 in0.0 mm 0.00 in0.0 mm 0.00 in0.0 mm
07:07 AM 73.4°F23.0°C 72.1°F22.3°C 96% 3.0 mph SE4.8 kmh SE 4.4 mph7.1 kmh 30.00 in1015.9 mb 0.00 in0.0 mm 0.00 in0.0 mm 0.00 in0.0 mm
07:12 AM 73.7°F23.2°C 72.4°F22.4°C 96% 2.8 mph SSE4.5 kmh SSE 4.4 mph7.1 kmh 30.00 in1015.9 mb 0.00 in0.0 mm 0.00 in0.0 mm 0.00 in0.0 mm
07:17 AM 73.7°F23.2°C 72.4°F22.4°C 96% 2.7 mph S4.3 kmh S 4.0 mph6.4 kmh 30.00 in1015.9 mb 0.00 in0.0 mm 0.00 in0.0 mm 0.00 in0.0 mm
07:22 AM 73.7°F23.2°C 72.4°F22.4°C 96% 3.4 mph S5.5 kmh S 4.0 mph6.4 kmh 30.00 in1015.9 mb 0.00 in0.0 mm 0.00 in0.0 mm 0.00 in0.0 mm
07:27 AM 73.7°F23.2°C 72.1°F22.3°C 95% 2.2 mph NE3.5 kmh NE 5.4 mph8.7 kmh 30.00 in1015.9 mb 0.00 in0.0 mm 0.00 in0.0 mm 0.00 in0.0 mm
07:32 AM 73.9°F23.3°C 72.3°F22.4°C 95% 4.2 mph S6.8 kmh S 5.4 mph8.7 kmh 30.00 in1015.9 mb 0.00 in0.0 mm 0.00 in0.0 mm 0.00 in0.0 mm
07:37 AM 74.1°F23.4°C 72.5°F22.5°C 95% Calm Calm 4.4 mph7.1 kmh 30.00 in1015.9 mb 0.00 in0.0 mm 0.00 in0.0 mm 0.00 in0.0 mm
07:42 AM 74.3°F23.5°C 72.7°F22.6°C 95% 4.0 mph ESE6.4 kmh ESE 4.4 mph7.1 kmh 30.00 in1015.9 mb 0.00 in0.0 mm 0.00 in0.0 mm 0.00 in0.0 mm
07:47 AM 74.6°F23.7°C 73.0°F22.8°C 95% 2.5 mph S4.0 kmh S 4.4 mph7.1 kmh 29.97 in1014.9 mb 0.00 in0.0 mm 0.00 in0.0 mm 0.00 in0.0 mm
07:52 AM 74.8°F23.8°C 73.2°F22.9°C 95% Calm Calm 3.2 mph5.1 kmh 29.97 in1014.9 mb 0.00 in0.0 mm 0.00 in0.0 mm 0.00 in0.0 mm
07:57 AM 74.6°F23.7°C 73.0°F22.8°C 95% 2.6 mph SSE4.2 kmh SSE 2.6 mph4.2 kmh 29.97 in1014.9 mb 0.00 in0.0 mm 0.00 in0.0 mm 0.00 in0.0 mm
08:02 AM 74.5°F23.6°C 72.6°F22.6°C 94% 3.4 mph SSW5.5 kmh SSW 5.0 mph8.0 kmh 29.97 in1014.9 mb 0.00 in0.0 mm 0.00 in0.0 mm 0.00 in0.0 mm
08:07 AM 74.3°F23.5°C 72.4°F22.4°C 94% 2.7 mph W4.3 kmh W 5.0 mph8.0 kmh 29.97 in1014.9 mb 0.00 in0.0 mm 0.00 in0.0 mm 0.00 in0.0 mm
08:12 AM 74.5°F23.6°C 72.6°F22.6°C 94% 2.5 mph S4.0 kmh S 6.2 mph10.0 kmh 29.97 in1014.9 mb 0.00 in0.0 mm 0.00 in0.0 mm 0.00 in0.0 mm
08:18 AM 74.8°F23.8°C 72.9°F22.7°C 94% 3.1 mph SW5.0 kmh SW 6.2 mph10.0 kmh 30.00 in1015.9 mb 0.00 in0.0 mm 0.00 in0.0 mm 0.00 in0.0 mm
08:23 AM 75.2°F24.0°C 73.3°F22.9°C 94% 2.5 mph SE4.0 kmh SE 4.4 mph7.1 kmh 30.00 in1015.9 mb 0.00 in0.0 mm 0.00 in0.0 mm 0.00 in0.0 mm
08:28 AM 75.5°F24.2°C 73.2°F22.9°C 93% 2.3 mph SSE3.7 kmh SSE 4.4 mph7.1 kmh 30.00 in1015.9 mb 0.00 in0.0 mm 0.00 in0.0 mm 0.00 in0.0 mm
08:33 AM 76.8°F24.9°C 74.5°F23.6°C 93% 2.2 mph ENE3.5 kmh ENE 5.0 mph8.0 kmh 30.00 in1015.9 mb 0.00 in0.0 mm 0.00 in0.0 mm 0.00 in0.0 mm
08:38 AM 77.3°F25.2°C 74.4°F23.6°C 91% 4.6 mph SE7.4 kmh SE 8.0 mph12.9 kmh 30.00 in1015.9 mb 0.00 in0.0 mm 0.00 in0.0 mm 0.00 in0.0 mm
08:43 AM 77.7°F25.4°C 74.5°F23.6°C 90% 2.4 mph SSW3.9 kmh SSW 8.0 mph12.9 kmh 30.00 in1015.9 mb 0.00 in0.0 mm 0.00 in0.0 mm 0.00 in0.0 mm
08:48 AM 77.7°F25.4°C 74.5°F23.6°C 90% 3.7 mph S6.0 kmh S 4.4 mph7.1 kmh 30.00 in1015.9 mb 0.00 in0.0 mm 0.00 in0.0 mm 0.00 in0.0 mm
08:53 AM 77.7°F25.4°C 73.8°F23.2°C 88% 3.2 mph WSW5.1 kmh WSW 4.4 mph7.1 kmh 30.00 in1015.9 mb 0.00 in0.0 mm 0.00 in0.0 mm 0.00 in0.0 mm
08:59 AM 77.9°F25.5°C 74.0°F23.3°C 88% 2.6 mph SW4.2 kmh SW 4.0 mph6.4 kmh 30.00 in1015.9 mb 0.00 in0.0 mm 0.00 in0.0 mm 0.00 in0.0 mm
09:03 AM 78.4°F25.8°C 74.5°F23.6°C 88% Calm Calm 5.4 mph8.7 kmh 30.00 in1015.9 mb 0.00 in0.0 mm 0.00 in0.0 mm 0.00 in0.0 mm
09:08 AM 78.6°F25.9°C 74.4°F23.6°C 87% Calm Calm 6.8 mph10.9 kmh 30.00 in1015.9 mb 0.00 in0.0 mm 0.00 in0.0 mm 0.00 in0.0 mm
09:14 AM 78.1°F25.6°C 73.9°F23.3°C 87% 3.0 mph WSW4.8 kmh WSW 6.8 mph10.9 kmh 30.00 in1015.9 mb 0.00 in0.0 mm 0.00 in0.0 mm 0.00 in0.0 mm
09:18 AM 78.2°F25.7°C 74.0°F23.3°C 87% 2.2 mph S3.5 kmh S 5.8 mph9.3 kmh 30.00 in1015.9 mb 0.00 in0.0 mm 0.00 in0.0 mm 0.00 in0.0 mm
09:23 AM 78.8°F26.0°C 74.6°F23.7°C 87% 3.0 mph SE4.8 kmh SE 7.2 mph11.6 kmh 30.00 in1015.9 mb 0.00 in0.0 mm 0.00 in0.0 mm 0.00 in0.0 mm
09:34 AM 78.4°F25.8°C 74.2°F23.4°C 87% 2.2 mph ENE3.5 kmh ENE 6.8 mph10.9 kmh 30.00 in1015.9 mb 0.00 in0.0 mm 0.00 in0.0 mm 0.00 in0.0 mm
09:39 AM 78.2°F25.7°C 74.3°F23.5°C 88% Calm Calm 6.8 mph10.9 kmh 30.00 in1015.9 mb 0.00 in0.0 mm 0.00 in0.0 mm 0.00 in0.0 mm
09:45 AM 77.9°F25.5°C 74.0°F23.3°C 88% 2.6 mph SSW4.2 kmh SSW 5.8 mph9.3 kmh 30.00 in1015.9 mb 0.00 in0.0 mm 0.00 in0.0 mm 0.00 in0.0 mm
09:50 AM 78.4°F25.8°C 74.5°F23.6°C 88% 3.3 mph SSW5.3 kmh SSW 5.8 mph9.3 kmh 30.00 in1015.9 mb 0.00 in0.0 mm 0.00 in0.0 mm 0.00 in0.0 mm
09:56 AM 78.6°F25.9°C 74.4°F23.6°C 87% 4.3 mph SSW6.9 kmh SSW 7.2 mph11.6 kmh 30.00 in1015.9 mb 0.00 in0.0 mm 0.00 in0.0 mm 0.00 in0.0 mm
10:01 AM 79.1°F26.2°C 74.9°F23.8°C 87% 3.7 mph SW6.0 kmh SW 7.2 mph11.6 kmh 30.00 in1015.9 mb 0.00 in0.0 mm 0.00 in0.0 mm 0.00 in0.0 mm
10:07 AM 79.3°F26.3°C 74.7°F23.7°C 86% 3.9 mph WSW6.3 kmh WSW 6.8 mph10.9 kmh 30.00 in1015.9 mb 0.00 in0.0 mm 0.00 in0.0 mm 0.00 in0.0 mm
10:12 AM 79.5°F26.4°C 74.9°F23.8°C 86% 3.3 mph SSW5.3 kmh SSW 6.8 mph10.9 kmh 30.00 in1015.9 mb 0.00 in0.0 mm 0.00 in0.0 mm 0.00 in0.0 mm
10:17 AM 79.5°F26.4°C 74.6°F23.7°C 85% 3.9 mph SSE6.3 kmh SSE 6.2 mph10.0 kmh 30.00 in1015.9 mb 0.00 in0.0 mm 0.00 in0.0 mm 0.00 in0.0 mm
10:22 AM 79.1°F26.2°C 74.2°F23.4°C 85% 4.0 mph SSW6.4 kmh SSW 5.4 mph8.7 kmh 30.00 in1015.9 mb 0.00 in0.0 mm 0.00 in0.0 mm 0.00 in0.0 mm
10:27 AM 79.1°F26.2°C 74.2°F23.4°C 85% 2.7 mph WSW4.3 kmh WSW 5.0 mph8.0 kmh 30.00 in1015.9 mb 0.00 in0.0 mm 0.00 in0.0 mm 0.00 in0.0 mm
10:32 AM 80.0°F26.7°C 75.4°F24.1°C 86% 3.4 mph SW5.5 kmh SW 5.0 mph8.0 kmh 30.00 in1015.9 mb 0.00 in0.0 mm 0.00 in0.0 mm 0.00 in0.0 mm
10:37 AM 82.0°F27.8°C 76.3°F24.6°C 83% 4.7 mph SSW7.6 kmh SSW 6.8 mph10.9 kmh 30.00 in1015.9 mb 0.00 in0.0 mm 0.00 in0.0 mm 0.00 in0.0 mm
10:42 AM 81.8°F27.7°C 75.4°F24.1°C 81% 2.7 mph S4.3 kmh S 9.0 mph14.5 kmh 30.00 in1015.9 mb 0.00 in0.0 mm 0.00 in0.0 mm 0.00 in0.0 mm
10:47 AM 81.8°F27.7°C 75.1°F23.9°C 80% 2.6 mph SSW4.2 kmh SSW 9.0 mph14.5 kmh 30.00 in1015.9 mb 0.00 in0.0 mm 0.00 in0.0 mm 0.00 in0.0 mm
10:52 AM 83.5°F28.6°C 76.4°F24.7°C 79% 2.5 mph ENE4.0 kmh ENE 5.4 mph8.7 kmh 30.00 in1015.9 mb 0.00 in0.0 mm 0.00 in0.0 mm 0.00 in0.0 mm
10:57 AM 83.6°F28.7°C 76.1°F24.5°C 78% 3.1 mph SW5.0 kmh SW 5.4 mph8.7 kmh 30.00 in1015.9 mb 0.00 in0.0 mm 0.00 in0.0 mm 0.00 in0.0 mm
11:02 AM 82.9°F28.3°C 74.7°F23.7°C 76% 3.3 mph SW5.3 kmh SW 6.8 mph10.9 kmh 30.00 in1015.9 mb 0.00 in0.0 mm 0.00 in0.0 mm 0.00 in0.0 mm
11:07 AM 83.1°F28.4°C 75.2°F24.0°C 77% 2.4 mph E3.9 kmh E 6.8 mph10.9 kmh 30.00 in1015.9 mb 0.00 in0.0 mm 0.00 in0.0 mm 0.00 in0.0 mm
11:12 AM 82.2°F27.9°C 74.7°F23.7°C 78% 3.1 mph SW5.0 kmh SW 5.4 mph8.7 kmh 30.00 in1015.9 mb 0.00 in0.0 mm 0.00 in0.0 mm 0.00 in0.0 mm
11:18 AM 83.5°F28.6°C 76.0°F24.4°C 78% 2.2 mph WNW3.5 kmh WNW 5.4 mph8.7 kmh 30.00 in1015.9 mb 0.00 in0.0 mm 0.00 in0.0 mm 0.00 in0.0 mm
11:23 AM 85.4°F29.7°C 76.7°F24.8°C 75% 2.9 mph NNW4.7 kmh NNW 5.0 mph8.0 kmh 30.00 in1015.9 mb 0.00 in0.0 mm 0.00 in0.0 mm 0.00 in0.0 mm
11:28 AM 86.9°F30.5°C 77.7°F25.4°C 74% 2.8 mph S4.5 kmh S 5.8 mph9.3 kmh 30.00 in1015.9 mb 0.00 in0.0 mm 0.00 in0.0 mm 0.00 in0.0 mm
11:33 AM 86.9°F30.5°C 77.7°F25.4°C 74% 3.5 mph S5.6 kmh S 5.8 mph9.3 kmh 30.00 in1015.9 mb 0.00 in0.0 mm 0.00 in0.0 mm 0.00 in0.0 mm
11:38 AM 86.9°F30.5°C 77.7°F25.4°C 74% 3.4 mph SE5.5 kmh SE 5.0 mph8.0 kmh 30.00 in1015.9 mb 0.00 in0.0 mm 0.00 in0.0 mm 0.00 in0.0 mm
11:43 AM 86.9°F30.5°C 77.7°F25.4°C 74% 4.9 mph SSE7.9 kmh SSE 6.8 mph10.9 kmh 30.00 in1015.9 mb 0.00 in0.0 mm 0.00 in0.0 mm 0.00 in0.0 mm
11:48 AM 86.9°F30.5°C 77.7°F25.4°C 74% 3.0 mph N4.8 kmh N 6.8 mph10.9 kmh 30.00 in1015.9 mb 0.00 in0.0 mm 0.00 in0.0 mm 0.00 in0.0 mm
11:53 AM 86.9°F30.5°C 77.7°F25.4°C 74% 3.1 mph NE5.0 kmh NE 5.4 mph8.7 kmh 30.00 in1015.9 mb 0.00 in0.0 mm 0.00 in0.0 mm 0.00 in0.0 mm
11:58 AM 86.9°F30.5°C 77.7°F25.4°C 74% 4.0 mph SE6.4 kmh SE 5.0 mph8.0 kmh 30.00 in1015.9 mb 0.00 in0.0 mm 0.00 in0.0 mm 0.00 in0.0 mm
12:03 PM 86.9°F30.5°C 77.7°F25.4°C 74% Calm Calm 5.0 mph8.0 kmh 29.97 in1014.9 mb 0.00 in0.0 mm 0.00 in0.0 mm 0.00 in0.0 mm
12:09 PM 86.9°F30.5°C 77.7°F25.4°C 74% 3.7 mph SW6.0 kmh SW 6.2 mph10.0 kmh 29.97 in1014.9 mb 0.00 in0.0 mm 0.00 in0.0 mm 0.00 in0.0 mm
12:15 PM 86.9°F30.5°C 77.7°F25.4°C 74% 3.9 mph E6.3 kmh E 6.2 mph10.0 kmh 29.97 in1014.9 mb 0.00 in0.0 mm 0.00 in0.0 mm 0.00 in0.0 mm
12:19 PM 86.9°F30.5°C 77.7°F25.4°C 74% 3.3 mph SW5.3 kmh SW 6.2 mph10.0 kmh 29.94 in1013.9 mb 0.00 in0.0 mm 0.00 in0.0 mm 0.00 in0.0 mm
12:25 PM 86.9°F30.5°C 77.7°F25.4°C 74% 5.0 mph SE8.0 kmh SE 7.2 mph11.6 kmh 29.94 in1013.9 mb 0.00 in0.0 mm 0.00 in0.0 mm 0.00 in0.0 mm
12:30 PM 86.9°F30.5°C 77.7°F25.4°C 74% 4.8 mph NNW7.7 kmh NNW 7.2 mph11.6 kmh 29.94 in1013.9 mb 0.00 in0.0 mm 0.00 in0.0 mm 0.00 in0.0 mm
12:35 PM 86.9°F30.5°C 77.7°F25.4°C 74% 2.8 mph SE4.5 kmh SE 5.8 mph9.3 kmh 29.94 in1013.9 mb 0.00 in0.0 mm 0.00 in0.0 mm 0.00 in0.0 mm
12:40 PM 86.9°F30.5°C 77.7°F25.4°C 74% 3.2 mph SW5.1 kmh SW 5.8 mph9.3 kmh 29.94 in1013.9 mb 0.00 in0.0 mm 0.00 in0.0 mm 0.00 in0.0 mm
12:45 PM 86.9°F30.5°C 77.7°F25.4°C 74% 3.4 mph S5.5 kmh S 5.8 mph9.3 kmh 29.94 in1013.9 mb 0.00 in0.0 mm 0.00 in0.0 mm 0.00 in0.0 mm
12:50 PM 86.9°F30.5°C 77.7°F25.4°C 74% 2.5 mph SSW4.0 kmh SSW 5.8 mph9.3 kmh 29.97 in1014.9 mb 0.00 in0.0 mm 0.00 in0.0 mm 0.00 in0.0 mm
12:55 PM 86.9°F30.5°C 77.7°F25.4°C 74% 4.8 mph SE7.7 kmh SE 6.2 mph10.0 kmh 29.97 in1014.9 mb 0.00 in0.0 mm 0.00 in0.0 mm 0.00 in0.0 mm
01:00 PM 86.9°F30.5°C 77.7°F25.4°C 74% 2.8 mph SW4.5 kmh SW 6.2 mph10.0 kmh 29.97 in1014.9 mb 0.00 in0.0 mm 0.00 in0.0 mm 0.00 in0.0 mm
01:05 PM 86.9°F30.5°C 77.7°F25.4°C 74% 2.2 mph S3.5 kmh S 5.8 mph9.3 kmh 29.97 in1014.9 mb 0.00 in0.0 mm 0.00 in0.0 mm 0.00 in0.0 mm
01:11 PM 86.9°F30.5°C 77.7°F25.4°C 74% 3.5 mph SW5.6 kmh SW 6.8 mph10.9 kmh 29.97 in1014.9 mb 0.00 in0.0 mm 0.00 in0.0 mm 0.00 in0.0 mm
01:16 PM 86.9°F30.5°C 77.7°F25.4°C 74% 3.5 mph SE5.6 kmh SE 6.8 mph10.9 kmh 29.94 in1013.9 mb 0.00 in0.0 mm 0.00 in0.0 mm 0.00 in0.0 mm
01:21 PM 86.9°F30.5°C 77.7°F25.4°C 74% 2.2 mph E3.5 kmh E 5.4 mph8.7 kmh 29.94 in1013.9 mb 0.00 in0.0 mm 0.00 in0.0 mm 0.00 in0.0 mm
01:26 PM 86.9°F30.5°C 77.7°F25.4°C 74% 2.8 mph SW4.5 kmh SW 5.8 mph9.3 kmh 29.94 in1013.9 mb 0.00 in0.0 mm 0.00 in0.0 mm 0.00 in0.0 mm
01:31 PM 86.9°F30.5°C 77.7°F25.4°C 74% 2.6 mph ESE4.2 kmh ESE 5.8 mph9.3 kmh 29.94 in1013.9 mb 0.00 in0.0 mm 0.00 in0.0 mm 0.00 in0.0 mm
01:36 PM 86.9°F30.5°C 77.7°F25.4°C 74% 3.1 mph SSW5.0 kmh SSW 4.4 mph7.1 kmh 29.94 in1013.9 mb 0.00 in0.0 mm 0.00 in0.0 mm 0.00 in0.0 mm
01:41 PM 86.9°F30.5°C 77.7°F25.4°C 74% 3.7 mph SSW6.0 kmh SSW 5.8 mph9.3 kmh 29.94 in1013.9 mb 0.00 in0.0 mm 0.00 in0.0 mm 0.00 in0.0 mm
01:46 PM 86.9°F30.5°C 77.7°F25.4°C 74% 2.2 mph SSE3.5 kmh SSE 7.2 mph11.6 kmh 29.94 in1013.9 mb 0.00 in0.0 mm 0.00 in0.0 mm 0.00 in0.0 mm
01:51 PM 86.9°F30.5°C 77.7°F25.4°C 74% 4.8 mph E7.7 kmh E 7.6 mph12.2 kmh 29.94 in1013.9 mb 0.00 in0.0 mm 0.00 in0.0 mm 0.00 in0.0 mm
01:56 PM 86.9°F30.5°C 77.7°F25.4°C 74% 3.9 mph WSW6.3 kmh WSW 7.6 mph12.2 kmh 29.94 in1013.9 mb 0.00 in0.0 mm 0.00 in0.0 mm 0.00 in0.0 mm
02:02 PM 86.9°F30.5°C 77.7°F25.4°C 74% 4.0 mph SE6.4 kmh SE 8.0 mph12.9 kmh 29.91 in1012.9 mb 0.00 in0.0 mm 0.00 in0.0 mm 0.00 in0.0 mm
02:07 PM 86.9°F30.5°C 77.7°F25.4°C 74% 3.3 mph S5.3 kmh S 8.0 mph12.9 kmh 29.91 in1012.9 mb 0.00 in0.0 mm 0.00 in0.0 mm 0.00 in0.0 mm
02:12 PM 86.9°F30.5°C 77.7°F25.4°C 74% 3.6 mph S5.8 kmh S 8.0 mph12.9 kmh 29.91 in1012.9 mb 0.00 in0.0 mm 0.00 in0.0 mm 0.00 in0.0 mm
02:17 PM 86.9°F30.5°C 77.7°F25.4°C 74% 4.0 mph SSW6.4 kmh SSW 5.8 mph9.3 kmh 29.91 in1012.9 mb 0.00 in0.0 mm 0.00 in0.0 mm 0.00 in0.0 mm
02:24 PM 86.9°F30.5°C 77.7°F25.4°C 74% 3.6 mph SSE5.8 kmh SSE 5.8 mph9.3 kmh 29.91 in1012.9 mb 0.00 in0.0 mm 0.00 in0.0 mm 0.00 in0.0 mm
02:29 PM 86.9°F30.5°C 77.7°F25.4°C 74% 2.9 mph SSE4.7 kmh SSE 5.8 mph9.3 kmh 29.91 in1012.9 mb 0.00 in0.0 mm 0.00 in0.0 mm 0.00 in0.0 mm
02:36 PM 86.9°F30.5°C 77.7°F25.4°C 74% 2.2 mph SSW3.5 kmh SSW 5.8 mph9.3 kmh 29.91 in1012.9 mb 0.00 in0.0 mm 0.00 in0.0 mm 0.00 in0.0 mm
02:41 PM 86.9°F30.5°C 77.7°F25.4°C 74% 2.4 mph SSE3.9 kmh SSE 5.0 mph8.0 kmh 29.91 in1012.9 mb 0.00 in0.0 mm 0.00 in0.0 mm 0.00 in0.0 mm
02:46 PM 86.9°F30.5°C 77.7°F25.4°C 74% 3.6 mph NNE5.8 kmh NNE 5.8 mph9.3 kmh 29.88 in1011.9 mb 0.00 in0.0 mm 0.00 in0.0 mm 0.00 in0.0 mm
02:51 PM 86.9°F30.5°C 77.7°F25.4°C 74% 4.2 mph WSW6.8 kmh WSW 5.8 mph9.3 kmh 29.88 in1011.9 mb 0.00 in0.0 mm 0.00 in0.0 mm 0.00 in0.0 mm
02:57 PM 86.9°F30.5°C 77.7°F25.4°C 74% 1.8 mph SSE2.9 kmh SSE 5.4 mph8.7 kmh 29.88 in1011.9 mb 0.00 in0.0 mm 0.00 in0.0 mm 0.00 in0.0 mm
03:02 PM 86.9°F30.5°C 77.7°F25.4°C 74% 3.5 mph SW5.6 kmh SW 5.8 mph9.3 kmh 29.91 in1012.9 mb 0.00 in0.0 mm 0.00 in0.0 mm 0.00 in0.0 mm
03:07 PM 86.9°F30.5°C 77.7°F25.4°C 74% 3.1 mph SSW5.0 kmh SSW 5.8 mph9.3 kmh 29.91 in1012.9 mb 0.00 in0.0 mm 0.00 in0.0 mm 0.00 in0.0 mm
03:12 PM 86.9°F30.5°C 77.7°F25.4°C 74% 3.9 mph W6.3 kmh W 5.8 mph9.3 kmh 29.91 in1012.9 mb 0.00 in0.0 mm 0.00 in0.0 mm 0.00 in0.0 mm
03:17 PM 86.9°F30.5°C 77.7°F25.4°C 74% 3.5 mph S5.6 kmh S 5.8 mph9.3 kmh 29.88 in1011.9 mb 0.00 in0.0 mm 0.00 in0.0 mm 0.00 in0.0 mm
03:22 PM 86.9°F30.5°C 77.7°F25.4°C 74% 3.3 mph SE5.3 kmh SE 5.8 mph9.3 kmh 29.88 in1011.9 mb 0.00 in0.0 mm 0.00 in0.0 mm 0.00 in0.0 mm
03:28 PM 86.9°F30.5°C 77.7°F25.4°C 74% 2.4 mph WSW3.9 kmh WSW 5.4 mph8.7 kmh 29.88 in1011.9 mb 0.00 in0.0 mm 0.00 in0.0 mm 0.00 in0.0 mm
03:33 PM 86.9°F30.5°C 77.7°F25.4°C 74% 3.0 mph SSW4.8 kmh SSW 5.0 mph8.0 kmh 29.91 in1012.9 mb 0.00 in0.0 mm 0.00 in0.0 mm 0.00 in0.0 mm
03:38 PM 86.9°F30.5°C 77.7°F25.4°C 74% 2.8 mph S4.5 kmh S 5.0 mph8.0 kmh 29.91 in1012.9 mb 0.00 in0.0 mm 0.00 in0.0 mm 0.00 in0.0 mm
03:43 PM 86.9°F30.5°C 77.7°F25.4°C 74% 2.5 mph SE4.0 kmh SE 5.0 mph8.0 kmh 29.91 in1012.9 mb 0.00 in0.0 mm 0.00 in0.0 mm 0.00 in0.0 mm
03:48 PM 86.9°F30.5°C 77.7°F25.4°C 74% 2.5 mph E4.0 kmh E 4.0 mph6.4 kmh 29.91 in1012.9 mb 0.00 in0.0 mm 0.00 in0.0 mm 0.00 in0.0 mm
03:53 PM 86.9°F30.5°C 77.7°F25.4°C 74% 2.6 mph SSE4.2 kmh SSE 4.4 mph7.1 kmh 29.91 in1012.9 mb 0.00 in0.0 mm 0.00 in0.0 mm 0.00 in0.0 mm
03:58 PM 86.9°F30.5°C 77.7°F25.4°C 74% 3.0 mph SSE4.8 kmh SSE 4.4 mph7.1 kmh 29.91 in1012.9 mb 0.00 in0.0 mm 0.00 in0.0 mm 0.00 in0.0 mm
04:03 PM 86.9°F30.5°C 77.7°F25.4°C 74% 3.5 mph SSW5.6 kmh SSW 6.8 mph10.9 kmh 29.91 in1012.9 mb 0.00 in0.0 mm 0.00 in0.0 mm 0.00 in0.0 mm
04:08 PM 86.9°F30.5°C 77.7°F25.4°C 74% Calm Calm 6.8 mph10.9 kmh 29.91 in1012.9 mb 0.00 in0.0 mm 0.00 in0.0 mm 0.00 in0.0 mm
04:13 PM 84.2°F29.0°C 72.2°F22.3°C 67% Calm Calm 2.6 mph4.2 kmh 29.91 in1012.9 mb 0.00 in0.0 mm 0.00 in0.0 mm 0.00 in0.0 mm
04:19 PM 83.5°F28.6°C 72.0°F22.2°C 68% Calm Calm -- 29.91 in1012.9 mb 0.00 in0.0 mm 0.00 in0.0 mm 0.00 in0.0 mm
04:24 PM 82.0°F27.8°C 71.8°F22.1°C 71% 4.8 mph WNW7.7 kmh WNW 6.2 mph10.0 kmh 29.91 in1012.9 mb 0.00 in0.0 mm 0.00 in0.0 mm 0.00 in0.0 mm
04:29 PM 80.9°F27.2°C 69.1°F20.6°C 67% 4.2 mph WNW6.8 kmh WNW 6.2 mph10.0 kmh 29.91 in1012.9 mb 0.00 in0.0 mm 0.00 in0.0 mm 0.00 in0.0 mm
04:34 PM 79.7°F26.5°C 69.2°F20.7°C 70% 4.9 mph WNW7.9 kmh WNW 8.0 mph12.9 kmh 29.91 in1012.9 mb 0.00 in0.0 mm 0.00 in0.0 mm 0.00 in0.0 mm
04:40 PM 79.0°F26.1°C 69.3°F20.7°C 72% 5.2 mph WSW8.4 kmh WSW 8.0 mph12.9 kmh 29.91 in1012.9 mb 0.00 in0.0 mm 0.00 in0.0 mm 0.00 in0.0 mm
04:45 PM 77.5°F25.3°C 69.8°F21.0°C 77% 2.9 mph WSW4.7 kmh WSW 7.2 mph11.6 kmh 29.91 in1012.9 mb 0.00 in0.0 mm 0.00 in0.0 mm 0.00 in0.0 mm
04:50 PM 75.4°F24.1°C 69.9°F21.1°C 83% 2.9 mph ENE4.7 kmh ENE 6.8 mph10.9 kmh 29.91 in1012.9 mb 0.04 in1.0 mm 0.48 in12.2 mm 0.04 in1.0 mm
04:55 PM 74.1°F23.4°C 69.9°F21.1°C 87% 3.5 mph SW5.6 kmh SW 5.0 mph8.0 kmh 29.91 in1012.9 mb 0.04 in1.0 mm 0.00 in0.0 mm 0.04 in1.0 mm
05:01 PM 73.4°F23.0°C 69.9°F21.1°C 89% 2.6 mph S4.2 kmh S 5.0 mph8.0 kmh 29.94 in1013.9 mb 0.04 in1.0 mm 0.00 in0.0 mm 0.04 in1.0 mm
05:06 PM 72.7°F22.6°C 69.8°F21.0°C 91% Calm Calm 4.0 mph6.4 kmh 29.94 in1013.9 mb 0.04 in1.0 mm 0.00 in0.0 mm 0.04 in1.0 mm
05:11 PM 72.5°F22.5°C 70.3°F21.3°C 93% Calm Calm 2.2 mph3.5 kmh 29.94 in1013.9 mb 0.04 in1.0 mm 0.00 in0.0 mm 0.04 in1.0 mm
05:16 PM 72.3°F22.4°C 70.4°F21.3°C 94% Calm Calm 2.2 mph3.5 kmh 29.91 in1012.9 mb 0.04 in1.0 mm 0.00 in0.0 mm 0.04 in1.0 mm
05:21 PM 71.9°F22.2°C 69.7°F20.9°C 93% 4.1 mph SW6.6 kmh SW 4.4 mph7.1 kmh 29.91 in1012.9 mb 0.04 in1.0 mm 0.00 in0.0 mm 0.04 in1.0 mm
05:26 PM 71.6°F22.0°C 69.4°F20.8°C 93% 2.1 mph SSE3.4 kmh SSE 4.4 mph7.1 kmh 29.91 in1012.9 mb 0.04 in1.0 mm 0.00 in0.0 mm 0.04 in1.0 mm
05:32 PM 71.6°F22.0°C 69.7°F20.9°C 94% Calm Calm 4.0 mph6.4 kmh 29.91 in1012.9 mb 0.04 in1.0 mm 0.00 in0.0 mm 0.04 in1.0 mm
05:37 PM 71.4°F21.9°C 69.5°F20.8°C 94% Calm Calm -- 29.91 in1012.9 mb 0.04 in1.0 mm 0.00 in0.0 mm 0.04 in1.0 mm
05:42 PM 71.4°F21.9°C 69.8°F21.0°C 95% 3.2 mph E5.1 kmh E 3.2 mph5.1 kmh 29.91 in1012.9 mb 0.04 in1.0 mm 0.00 in0.0 mm 0.04 in1.0 mm
05:47 PM 71.2°F21.8°C 69.9°F21.1°C 96% Calm Calm 3.2 mph5.1 kmh 29.91 in1012.9 mb 0.00 in0.0 mm 0.00 in0.0 mm 0.04 in1.0 mm
05:52 PM 70.9°F21.6°C 69.3°F20.7°C 95% Calm Calm 3.2 mph5.1 kmh 29.91 in1012.9 mb 0.04 in1.0 mm 0.48 in12.2 mm 0.09 in2.3 mm
05:57 PM 70.5°F21.4°C 69.2°F20.7°C 96% 2.2 mph SW3.5 kmh SW 2.6 mph4.2 kmh 29.91 in1012.9 mb 0.04 in1.0 mm 0.00 in0.0 mm 0.09 in2.3 mm
06:02 PM 70.3°F21.3°C 69.0°F20.6°C 96% 2.7 mph WSW4.3 kmh WSW 4.0 mph6.4 kmh 29.91 in1012.9 mb 0.04 in1.0 mm 0.00 in0.0 mm 0.09 in2.3 mm
06:07 PM 70.1°F21.2°C 69.1°F20.6°C 97% 2.4 mph ENE3.9 kmh ENE 4.0 mph6.4 kmh 29.91 in1012.9 mb 0.04 in1.0 mm 0.00 in0.0 mm 0.09 in2.3 mm
06:12 PM 70.1°F21.2°C 69.1°F20.6°C 97% 4.4 mph ESE7.1 kmh ESE 5.8 mph9.3 kmh 29.91 in1012.9 mb 0.04 in1.0 mm 0.00 in0.0 mm 0.09 in2.3 mm
06:17 PM 70.1°F21.2°C 69.1°F20.6°C 97% Calm Calm 5.8 mph9.3 kmh 29.91 in1012.9 mb 0.04 in1.0 mm 0.00 in0.0 mm 0.09 in2.3 mm
06:23 PM 70.0°F21.1°C 69.0°F20.6°C 97% Calm Calm 4.0 mph6.4 kmh 29.91 in1012.9 mb 0.08 in2.0 mm 0.40 in10.2 mm 0.13 in3.3 mm
06:28 PM 69.8°F21.0°C 69.1°F20.6°C 98% Calm Calm 3.2 mph5.1 kmh 29.91 in1012.9 mb 0.08 in2.0 mm 0.00 in0.0 mm 0.13 in3.3 mm
06:33 PM 69.8°F21.0°C 69.1°F20.6°C 98% Calm Calm 2.2 mph3.5 kmh 29.91 in1012.9 mb 0.08 in2.0 mm 0.00 in0.0 mm 0.13 in3.3 mm
06:38 PM 69.6°F20.9°C 68.9°F20.5°C 98% Calm Calm 2.2 mph3.5 kmh 29.91 in1012.9 mb 0.08 in2.0 mm 0.00 in0.0 mm 0.13 in3.3 mm
06:43 PM 69.6°F20.9°C 68.9°F20.5°C 98% Calm Calm -- 29.91 in1012.9 mb 0.08 in2.0 mm 0.00 in0.0 mm 0.13 in3.3 mm
06:48 PM 69.4°F20.8°C 68.7°F20.4°C 98% 2.6 mph S4.2 kmh S 2.6 mph4.2 kmh 29.94 in1013.9 mb 0.00 in0.0 mm 0.00 in0.0 mm 0.13 in3.3 mm
06:54 PM 69.6°F20.9°C 68.9°F20.5°C 98% 2.2 mph S3.5 kmh S 4.0 mph6.4 kmh 29.94 in1013.9 mb 0.00 in0.0 mm 0.00 in0.0 mm 0.13 in3.3 mm
06:59 PM 69.4°F20.8°C 68.7°F20.4°C 98% Calm Calm 4.0 mph6.4 kmh 29.94 in1013.9 mb 0.00 in0.0 mm 0.00 in0.0 mm 0.13 in3.3 mm
07:05 PM 69.4°F20.8°C 68.7°F20.4°C 98% Calm Calm 2.6 mph4.2 kmh 29.94 in1013.9 mb 0.00 in0.0 mm 0.00 in0.0 mm 0.13 in3.3 mm
07:10 PM 69.4°F20.8°C 68.7°F20.4°C 98% 3.3 mph SSE5.3 kmh SSE 4.0 mph6.4 kmh 29.94 in1013.9 mb 0.00 in0.0 mm 0.00 in0.0 mm 0.13 in3.3 mm
07:16 PM 69.4°F20.8°C 68.7°F20.4°C 98% 4.1 mph ENE6.6 kmh ENE 4.4 mph7.1 kmh 29.91 in1012.9 mb 0.00 in0.0 mm 0.00 in0.0 mm 0.13 in3.3 mm
07:21 PM 69.6°F20.9°C 68.9°F20.5°C 98% Calm Calm 4.4 mph7.1 kmh 29.91 in1012.9 mb 0.00 in0.0 mm 0.00 in0.0 mm 0.13 in3.3 mm
07:29 PM 69.6°F20.9°C 68.9°F20.5°C 98% 2.8 mph S4.5 kmh S 5.0 mph8.0 kmh 29.91 in1012.9 mb 0.00 in0.0 mm 0.00 in0.0 mm 0.13 in3.3 mm
07:33 PM 69.6°F20.9°C 68.9°F20.5°C 98% Calm Calm 5.0 mph8.0 kmh 29.88 in1011.9 mb 0.04 in1.0 mm 0.60 in15.2 mm 0.17 in4.3 mm
07:39 PM 69.8°F21.0°C 69.1°F20.6°C 98% 3.2 mph S5.1 kmh S 4.0 mph6.4 kmh 29.88 in1011.9 mb 0.04 in1.0 mm 0.00 in0.0 mm 0.17 in4.3 mm
07:44 PM 69.8°F21.0°C 69.1°F20.6°C 98% 2.7 mph S4.3 kmh S 3.2 mph5.1 kmh 29.88 in1011.9 mb 0.04 in1.0 mm 0.00 in0.0 mm 0.17 in4.3 mm
07:49 PM 69.8°F21.0°C 69.1°F20.6°C 98% Calm Calm 3.2 mph5.1 kmh 29.91 in1012.9 mb 0.00 in0.0 mm 0.00 in0.0 mm 0.17 in4.3 mm
07:54 PM 70.0°F21.1°C 69.3°F20.7°C 98% Calm Calm -- 29.91 in1012.9 mb 0.00 in0.0 mm 0.00 in0.0 mm 0.17 in4.3 mm
07:59 PM 70.0°F21.1°C 69.3°F20.7°C 98% Calm Calm -- 29.91 in1012.9 mb 0.00 in0.0 mm 0.00 in0.0 mm 0.17 in4.3 mm
08:04 PM 69.8°F21.0°C 69.1°F20.6°C 98% Calm Calm 2.2 mph3.5 kmh 29.94 in1013.9 mb 0.00 in0.0 mm 0.00 in0.0 mm 0.17 in4.3 mm
08:09 PM 69.8°F21.0°C 69.1°F20.6°C 98% Calm Calm 2.2 mph3.5 kmh 29.94 in1013.9 mb 0.00 in0.0 mm 0.00 in0.0 mm 0.17 in4.3 mm
08:14 PM 69.6°F20.9°C 68.9°F20.5°C 98% Calm Calm -- 29.94 in1013.9 mb 0.00 in0.0 mm 0.00 in0.0 mm 0.17 in4.3 mm
08:19 PM 69.4°F20.8°C 68.7°F20.4°C 98% Calm Calm -- 29.97 in1014.9 mb 0.00 in0.0 mm 0.00 in0.0 mm 0.17 in4.3 mm
08:24 PM 69.4°F20.8°C 68.7°F20.4°C 98% Calm Calm -- 29.97 in1014.9 mb 0.00 in0.0 mm 0.00 in0.0 mm 0.17 in4.3 mm
08:29 PM 69.2°F20.7°C 68.5°F20.3°C 98% Calm Calm -- 29.97 in1014.9 mb 0.00 in0.0 mm 0.00 in0.0 mm 0.17 in4.3 mm
08:34 PM 69.2°F20.7°C 68.5°F20.3°C 98% Calm Calm -- 29.97 in1014.9 mb 0.00 in0.0 mm 0.00 in0.0 mm 0.17 in4.3 mm
08:40 PM 69.1°F20.6°C 68.4°F20.2°C 98% Calm Calm -- 29.97 in1014.9 mb 0.00 in0.0 mm 0.00 in0.0 mm 0.17 in4.3 mm
08:45 PM 69.2°F20.7°C 68.5°F20.3°C 98% Calm Calm -- 29.97 in1014.9 mb 0.00 in0.0 mm 0.00 in0.0 mm 0.17 in4.3 mm
08:51 PM 69.1°F20.6°C 68.4°F20.2°C 98% Calm Calm -- 29.97 in1014.9 mb 0.00 in0.0 mm 0.00 in0.0 mm 0.17 in4.3 mm
08:56 PM 68.9°F20.5°C 68.2°F20.1°C 98% Calm Calm -- 29.97 in1014.9 mb 0.00 in0.0 mm 0.00 in0.0 mm 0.17 in4.3 mm
09:02 PM 69.1°F20.6°C 68.4°F20.2°C 98% Calm Calm -- 29.97 in1014.9 mb 0.00 in0.0 mm 0.00 in0.0 mm 0.17 in4.3 mm
09:07 PM 69.1°F20.6°C 68.4°F20.2°C 98% Calm Calm -- 29.97 in1014.9 mb 0.00 in0.0 mm 0.00 in0.0 mm 0.17 in4.3 mm
09:12 PM 69.2°F20.7°C 68.5°F20.3°C 98% Calm Calm -- 29.97 in1014.9 mb 0.00 in0.0 mm 0.00 in0.0 mm 0.17 in4.3 mm
09:17 PM 69.2°F20.7°C 68.5°F20.3°C 98% Calm Calm -- 29.97 in1014.9 mb 0.00 in0.0 mm 0.00 in0.0 mm 0.17 in4.3 mm
09:22 PM 69.2°F20.7°C 68.5°F20.3°C 98% Calm Calm -- 29.97 in1014.9 mb 0.00 in0.0 mm 0.00 in0.0 mm 0.17 in4.3 mm
09:27 PM 69.2°F20.7°C 68.5°F20.3°C 98% Calm Calm -- 29.97 in1014.9 mb 0.00 in0.0 mm 0.00 in0.0 mm 0.17 in4.3 mm
09:32 PM 69.2°F20.7°C 68.5°F20.3°C 98% Calm Calm -- 29.97 in1014.9 mb 0.00 in0.0 mm 0.00 in0.0 mm 0.17 in4.3 mm
09:37 PM 69.2°F20.7°C 68.5°F20.3°C 98% Calm Calm -- 29.97 in1014.9 mb 0.00 in0.0 mm 0.00 in0.0 mm 0.17 in4.3 mm
09:44 PM 69.2°F20.7°C 68.5°F20.3°C 98% Calm Calm -- 29.97 in1014.9 mb 0.00 in0.0 mm 0.00 in0.0 mm 0.17 in4.3 mm
09:49 PM 69.2°F20.7°C 68.5°F20.3°C 98% Calm Calm -- 29.97 in1014.9 mb 0.00 in0.0 mm 0.00 in0.0 mm 0.17 in4.3 mm
09:55 PM 69.2°F20.7°C 68.5°F20.3°C 98% Calm Calm -- 29.97 in1014.9 mb 0.00 in0.0 mm 0.00 in0.0 mm 0.17 in4.3 mm
10:00 PM 69.2°F20.7°C 68.5°F20.3°C 98% Calm Calm -- 29.97 in1014.9 mb 0.00 in0.0 mm 0.00 in0.0 mm 0.17 in4.3 mm
10:06 PM 69.2°F20.7°C 68.5°F20.3°C 98% Calm Calm -- 29.97 in1014.9 mb 0.00 in0.0 mm 0.00 in0.0 mm 0.17 in4.3 mm
10:11 PM 69.1°F20.6°C 68.4°F20.2°C 98% Calm Calm -- 29.97 in1014.9 mb 0.00 in0.0 mm 0.00 in0.0 mm 0.17 in4.3 mm
10:16 PM 69.2°F20.7°C 68.5°F20.3°C 98% Calm Calm -- 29.97 in1014.9 mb 0.00 in0.0 mm 0.00 in0.0 mm 0.17 in4.3 mm
10:21 PM 69.4°F20.8°C 68.7°F20.4°C 98% Calm Calm -- 29.97 in1014.9 mb 0.00 in0.0 mm 0.00 in0.0 mm 0.17 in4.3 mm
10:26 PM 69.4°F20.8°C 68.7°F20.4°C 98% Calm Calm -- 29.97 in1014.9 mb 0.00 in0.0 mm 0.00 in0.0 mm 0.17 in4.3 mm
10:31 PM 69.4°F20.8°C 68.7°F20.4°C 98% 2.2 mph WSW3.5 kmh WSW 2.2 mph3.5 kmh 29.94 in1013.9 mb 0.00 in0.0 mm 0.00 in0.0 mm 0.17 in4.3 mm
10:38 PM 69.4°F20.8°C 68.7°F20.4°C 98% Calm Calm 2.2 mph3.5 kmh 29.94 in1013.9 mb 0.00 in0.0 mm 0.00 in0.0 mm 0.17 in4.3 mm
10:43 PM 69.4°F20.8°C 68.7°F20.4°C 98% Calm Calm -- 29.94 in1013.9 mb 0.00 in0.0 mm 0.00 in0.0 mm 0.17 in4.3 mm
10:48 PM 69.4°F20.8°C 68.7°F20.4°C 98% Calm Calm -- 29.94 in1013.9 mb 0.00 in0.0 mm 0.00 in0.0 mm 0.17 in4.3 mm
10:53 PM 69.2°F20.7°C 68.5°F20.3°C 98% Calm Calm -- 29.94 in1013.9 mb 0.00 in0.0 mm 0.00 in0.0 mm 0.17 in4.3 mm
10:58 PM 69.1°F20.6°C 68.4°F20.2°C 98% Calm Calm -- 29.94 in1013.9 mb 0.00 in0.0 mm 0.00 in0.0 mm 0.17 in4.3 mm
11:03 PM 69.1°F20.6°C 68.4°F20.2°C 98% Calm Calm -- 29.94 in1013.9 mb 0.00 in0.0 mm 0.00 in0.0 mm 0.16 in4.1 mm
11:08 PM 69.1°F20.6°C 68.4°F20.2°C 98% Calm Calm -- 29.94 in1013.9 mb 0.00 in0.0 mm 0.00 in0.0 mm 0.16 in4.1 mm
11:13 PM 68.9°F20.5°C 68.2°F20.1°C 98% Calm Calm -- 29.94 in1013.9 mb 0.00 in0.0 mm 0.00 in0.0 mm 0.16 in4.1 mm
11:19 PM 68.7°F20.4°C 68.0°F20.0°C 98% Calm Calm -- 29.91 in1012.9 mb 0.00 in0.0 mm 0.00 in0.0 mm 0.16 in4.1 mm
11:24 PM 68.7°F20.4°C 68.0°F20.0°C 98% Calm Calm -- 29.91 in1012.9 mb 0.00 in0.0 mm 0.00 in0.0 mm 0.16 in4.1 mm
11:29 PM 68.7°F20.4°C 68.0°F20.0°C 98% Calm Calm -- 29.91 in1012.9 mb 0.00 in0.0 mm 0.00 in0.0 mm 0.16 in4.1 mm
11:34 PM 68.7°F20.4°C 68.0°F20.0°C 98% Calm Calm -- 29.91 in1012.9 mb 0.00 in0.0 mm 0.00 in0.0 mm 0.16 in4.1 mm
11:39 PM 68.5°F20.3°C 67.8°F19.9°C 98% Calm Calm -- 29.91 in1012.9 mb 0.00 in0.0 mm 0.00 in0.0 mm 0.16 in4.1 mm
11:44 PM 68.5°F20.3°C 67.8°F19.9°C 98% Calm Calm -- 29.91 in1012.9 mb 0.00 in0.0 mm 0.00 in0.0 mm 0.16 in4.1 mm
11:49 PM 68.3°F20.2°C 67.6°F19.8°C 98% Calm Calm -- 29.91 in1012.9 mb 0.00 in0.0 mm 0.00 in0.0 mm 0.16 in4.1 mm
11:54 PM 68.3°F20.2°C 67.6°F19.8°C 98% Calm Calm -- 29.91 in1012.9 mb 0.00 in0.0 mm 0.00 in0.0 mm 0.16 in4.1 mm
11:59 PM 68.2°F20.1°C 67.5°F19.7°C 98% Calm Calm -- 29.91 in1012.9 mb 0.00 in0.0 mm 0.00 in0.0 mm 0.16 in4.1 mm